Time;durP1;ratioP1;P1;durP2;ratioP2;P2;SDS_P1;SDS_P2;PMS_P1;PMS_P2;Temp;Humidity;BMP_temperature;BMP_pressure;BME280_temperature;BME280_humidity;BME280_pressure;Samples;Min_cycle;Max_cycle;Signal;HPM_P1;HPM_P2
2023/04/04 00:00:23;;;;;;;2.83;1.77;;;;;;;;;;10376937;28;20029;-58
2023/04/04 00:05:25;;;;;;;5.32;1.95;;;;;;;;;;10376746;28;20029;-58
2023/04/04 00:10:27;;;;;;;2.42;1.52;;;;;;;;;;10377174;28;20022;-58
2023/04/04 00:15:28;;;;;;;4.53;1.77;;;;;;;;;;10376516;28;20037;-58
2023/04/04 00:20:30;;;;;;;4.28;2.15;;;;;;;;;;10376208;28;20351;-58
2023/04/04 00:25:31;;;;;;;2.28;1.60;;;;;;;;;;10376019;28;20045;-58
2023/04/04 00:30:34;;;;;;;3.42;1.80;;;;;;;;;;10375848;28;20062;-58
2023/04/04 00:35:35;;;;;;;2.20;1.60;;;;;;;;;;10375145;28;20029;-58
2023/04/04 00:40:49;;;;;;;3.25;1.90;;;;;;;;;;10375596;28;20025;-58
2023/04/04 00:45:52;;;;;;;2.53;1.50;;;;;;;;;;10375399;28;20121;-58
2023/04/04 00:50:53;;;;;;;2.97;1.58;;;;;;;;;;10374592;28;20373;-58
2023/04/04 00:55:55;;;;;;;4.50;2.08;;;;;;;;;;10375715;28;20068;-57
2023/04/04 01:00:59;;;;;;;5.00;1.70;;;;;;;;;;10373626;28;20030;-57
2023/04/04 01:06:01;;;;;;;5.15;2.13;;;;;;;;;;10375269;28;20030;-57
2023/04/04 01:11:04;;;;;;;4.97;1.88;;;;;;;;;;10374550;28;20034;-57
2023/04/04 01:16:06;;;;;;;3.33;1.63;;;;;;;;;;10374527;28;20028;-57
2023/04/04 01:21:12;;;;;;;2.05;1.25;;;;;;;;;;10375546;28;20026;-57
2023/04/04 01:26:13;;;;;;;2.70;1.52;;;;;;;;;;10375509;28;20026;-57
2023/04/04 01:31:24;;;;;;;2.55;1.50;;;;;;;;;;10374218;28;20030;-57
2023/04/04 01:36:42;;;;;;;4.70;1.63;;;;;;;;;;10374754;28;20033;-57
2023/04/04 01:41:48;;;;;;;5.30;1.70;;;;;;;;;;10374653;28;20041;-57
2023/04/04 01:46:55;;;;;;;2.53;1.50;;;;;;;;;;10374031;28;20037;-57
2023/04/04 01:51:56;;;;;;;1.55;1.30;;;;;;;;;;10373612;28;20042;-57
2023/04/04 01:56:58;;;;;;;2.40;1.50;;;;;;;;;;10373721;28;20121;-57
2023/04/04 02:01:59;;;;;;;1.55;1.23;;;;;;;;;;10378875;28;20022;-57
2023/04/04 02:07:01;;;;;;;2.78;1.50;;;;;;;;;;10381417;28;20096;-57
2023/04/04 02:12:03;;;;;;;1.73;1.20;;;;;;;;;;10381290;28;20034;-57
2023/04/04 02:17:04;;;;;;;1.83;1.40;;;;;;;;;;10381112;28;20052;-57
2023/04/04 02:22:06;;;;;;;1.63;1.27;;;;;;;;;;10380917;28;20101;-55
2023/04/04 02:27:08;;;;;;;2.90;1.40;;;;;;;;;;10380653;28;20030;-57
2023/04/04 02:32:10;;;;;;;1.33;1.10;;;;;;;;;;10380424;28;20037;-58
2023/04/04 02:37:12;;;;;;;1.45;1.15;;;;;;;;;;10380884;28;20037;-58
2023/04/04 02:42:14;;;;;;;3.92;1.80;;;;;;;;;;10380620;28;20018;-58
2023/04/04 02:47:16;;;;;;;2.08;1.30;;;;;;;;;;10379846;28;20042;-58
2023/04/04 02:52:19;;;;;;;4.53;1.45;;;;;;;;;;10380280;28;20152;-58
2023/04/04 02:57:21;;;;;;;2.10;1.40;;;;;;;;;;10379544;28;20390;-57
2023/04/04 03:02:24;;;;;;;3.03;1.38;;;;;;;;;;10380459;28;20029;-57
2023/04/04 03:07:26;;;;;;;2.00;1.20;;;;;;;;;;10379664;28;20045;-58
2023/04/04 03:12:28;;;;;;;1.65;1.23;;;;;;;;;;10378398;28;20065;-57
2023/04/04 03:17:30;;;;;;;1.73;1.27;;;;;;;;;;10379431;28;20033;-58
2023/04/04 03:22:31;;;;;;;3.95;1.73;;;;;;;;;;10378344;28;20030;-57
2023/04/04 03:27:34;;;;;;;1.23;1.08;;;;;;;;;;10379479;28;20025;-57
2023/04/04 03:32:39;;;;;;;1.33;1.23;;;;;;;;;;10378333;28;20084;-57
2023/04/04 03:37:41;;;;;;;2.72;1.27;;;;;;;;;;10377978;28;20022;-57
2023/04/04 03:42:42;;;;;;;1.58;1.33;;;;;;;;;;10378139;28;20112;-57
2023/04/04 03:47:44;;;;;;;1.33;1.20;;;;;;;;;;10378137;28;20461;-57
2023/04/04 03:52:47;;;;;;;1.77;1.10;;;;;;;;;;10376670;28;20061;-57
2023/04/04 03:57:48;;;;;;;1.77;0.98;;;;;;;;;;10377752;28;20057;-56
2023/04/04 04:02:50;;;;;;;1.60;1.30;;;;;;;;;;10376753;28;20054;-56
2023/04/04 04:07:52;;;;;;;2.03;1.05;;;;;;;;;;10376653;28;20053;-57
2023/04/04 04:12:53;;;;;;;1.35;1.20;;;;;;;;;;10376500;28;20032;-57
2023/04/04 04:17:54;;;;;;;1.17;1.08;;;;;;;;;;10377604;28;20053;-56
2023/04/04 04:22:56;;;;;;;3.00;1.40;;;;;;;;;;10376511;28;21981;-57
2023/04/04 04:27:58;;;;;;;1.55;1.17;;;;;;;;;;10376087;28;20030;-57
2023/04/04 04:32:59;;;;;;;1.30;1.20;;;;;;;;;;10376073;28;20131;-57
2023/04/04 04:38:01;;;;;;;1.23;1.13;;;;;;;;;;10376276;28;20041;-57
2023/04/04 04:43:02;;;;;;;1.02;1.02;;;;;;;;;;10375402;28;20030;-58
2023/04/04 04:48:04;;;;;;;1.92;1.30;;;;;;;;;;10376563;28;20026;-57
2023/04/04 04:53:07;;;;;;;2.13;1.25;;;;;;;;;;10374979;28;20054;-57
2023/04/04 04:58:09;;;;;;;1.67;1.20;;;;;;;;;;10375014;28;20056;-58
2023/04/04 05:03:11;;;;;;;1.02;1.00;;;;;;;;;;10374670;28;20382;-58
2023/04/04 05:08:13;;;;;;;2.95;1.27;;;;;;;;;;10375332;28;20018;-57
2023/04/04 05:13:14;;;;;;;1.63;1.10;;;;;;;;;;10375129;28;20066;-52
2023/04/04 05:18:14;;;;;;;2.80;1.30;;;;;;;;;;10374575;28;20088;-55
2023/04/04 05:23:15;;;;;;;3.55;1.30;;;;;;;;;;10364254;28;20022;-62
2023/04/04 05:28:16;;;;;;;4.47;1.52;;;;;;;;;;10362973;28;20048;-52
2023/04/04 05:33:16;;;;;;;5.80;1.48;;;;;;;;;;10363279;28;20030;-56
2023/04/04 05:38:17;;;;;;;3.90;1.40;;;;;;;;;;10365330;28;20037;-53
2023/04/04 05:43:18;;;;;;;8.20;1.67;;;;;;;;;;10373132;28;20148;-54
2023/04/04 05:48:18;;;;;;;5.95;1.80;;;;;;;;;;10358301;28;20030;-59
2023/04/04 05:53:19;;;;;;;5.45;1.77;;;;;;;;;;10361491;28;20046;-56
2023/04/04 05:58:20;;;;;;;4.50;1.65;;;;;;;;;;10374807;28;20064;-56
2023/04/04 06:03:20;;;;;;;10.60;2.05;;;;;;;;;;10377643;28;20035;-58
2023/04/04 06:08:22;;;;;;;7.05;1.77;;;;;;;;;;10377511;28;20496;-55
2023/04/04 06:13:24;;;;;;;2.97;1.42;;;;;;;;;;10390702;28;20033;-50
2023/04/04 06:18:24;;;;;;;10.88;1.90;;;;;;;;;;10378821;28;20112;-59
2023/04/04 06:23:25;;;;;;;9.10;2.30;;;;;;;;;;10403895;28;20021;-53
2023/04/04 06:28:26;;;;;;;16.85;2.30;;;;;;;;;;10371745;28;20026;-50
2023/04/04 06:33:26;;;;;;;3.85;1.67;;;;;;;;;;10371383;28;20033;-49
2023/04/04 06:38:28;;;;;;;4.32;1.70;;;;;;;;;;10371699;28;20030;-54
2023/04/04 06:43:28;;;;;;;10.45;1.92;;;;;;;;;;10369210;28;20080;-54
2023/04/04 06:48:29;;;;;;;7.22;1.75;;;;;;;;;;10369375;28;20022;-55
2023/04/04 06:53:30;;;;;;;3.72;1.80;;;;;;;;;;10369774;28;20117;-50
2023/04/04 06:58:31;;;;;;;8.07;1.70;;;;;;;;;;10371126;28;20034;-50
2023/04/04 07:03:32;;;;;;;3.40;1.58;;;;;;;;;;10372934;28;20029;-50
2023/04/04 07:08:32;;;;;;;4.45;1.90;;;;;;;;;;10368514;28;20092;-53
2023/04/04 07:13:34;;;;;;;7.47;1.70;;;;;;;;;;10369038;28;20100;-52
2023/04/04 07:18:34;;;;;;;4.53;1.58;;;;;;;;;;10369212;28;20029;-53
2023/04/04 07:23:35;;;;;;;6.05;1.65;;;;;;;;;;10370528;28;20417;-56
2023/04/04 07:28:36;;;;;;;3.92;2.03;;;;;;;;;;10368603;28;20513;-50
2023/04/04 07:33:37;;;;;;;3.70;1.52;;;;;;;;;;10367520;28;20036;-53
2023/04/04 07:38:37;;;;;;;7.20;1.80;;;;;;;;;;10368329;28;20037;-51
2023/04/04 07:43:38;;;;;;;8.27;1.80;;;;;;;;;;10367019;28;20030;-51
2023/04/04 07:48:38;;;;;;;6.38;2.00;;;;;;;;;;10368031;28;20030;-49
2023/04/04 07:53:39;;;;;;;3.55;1.40;;;;;;;;;;10368169;28;20398;-51
2023/04/04 07:58:40;;;;;;;3.45;1.77;;;;;;;;;;10370800;28;20044;-52
2023/04/04 08:03:40;;;;;;;2.67;1.50;;;;;;;;;;10375855;28;20034;-59
2023/04/04 08:08:41;;;;;;;5.05;1.88;;;;;;;;;;10366702;28;20021;-53
2023/04/04 08:13:42;;;;;;;2.05;1.73;;;;;;;;;;10365151;28;20030;-63
2023/04/04 08:18:43;;;;;;;4.40;1.50;;;;;;;;;;10366495;28;20030;-61
2023/04/04 08:23:44;;;;;;;3.65;1.58;;;;;;;;;;10367367;28;20045;-52
2023/04/04 08:28:44;;;;;;;1.52;1.40;;;;;;;;;;10365910;28;20522;-61
2023/04/04 08:33:45;;;;;;;2.80;1.85;;;;;;;;;;10365070;28;20030;-49
2023/04/04 08:38:46;;;;;;;4.43;1.55;;;;;;;;;;10366305;28;20026;-54
2023/04/04 08:43:53;;;;;;;1.83;1.23;;;;;;;;;;10367909;28;20037;-59
2023/04/04 08:48:57;;;;;;;6.68;1.85;;;;;;;;;;10380435;28;20478;-53
2023/04/04 08:53:59;;;;;;;4.10;1.63;;;;;;;;;;10364219;28;20064;-57
2023/04/04 08:58:59;;;;;;;7.60;2.03;;;;;;;;;;10369775;28;20172;-54
2023/04/04 09:04:01;;;;;;;9.43;1.73;;;;;;;;;;10366578;28;20181;-53
2023/04/04 09:09:03;;;;;;;2.28;1.77;;;;;;;;;;10379767;28;20069;-52
2023/04/04 09:14:03;;;;;;;2.78;1.42;;;;;;;;;;10365173;28;20026;-54
2023/04/04 09:19:04;;;;;;;4.00;1.67;;;;;;;;;;10361518;28;20433;-54
2023/04/04 09:24:05;;;;;;;3.47;1.50;;;;;;;;;;10365048;28;20080;-54
2023/04/04 09:29:07;;;;;;;2.65;1.48;;;;;;;;;;10366233;28;20040;-65
2023/04/04 09:34:08;;;;;;;1.88;1.50;;;;;;;;;;10365391;28;20038;-50
2023/04/04 09:39:09;;;;;;;2.38;1.30;;;;;;;;;;10365469;28;20021;-65
2023/04/04 09:44:11;;;;;;;1.95;1.55;;;;;;;;;;10364793;28;20030;-50
2023/04/04 09:49:22;;;;;;;7.43;1.75;;;;;;;;;;10363178;28;20108;-51
2023/04/04 09:54:23;;;;;;;3.08;1.40;;;;;;;;;;10363332;28;20470;-61
2023/04/04 09:59:23;;;;;;;2.60;1.50;;;;;;;;;;10372757;28;20053;-50
2023/04/04 10:04:25;;;;;;;3.90;1.80;;;;;;;;;;10366864;28;20492;-52
2023/04/04 10:09:27;;;;;;;3.55;1.52;;;;;;;;;;10364551;28;20033;-49
2023/04/04 10:14:35;;;;;;;2.13;1.45;;;;;;;;;;10364231;28;20204;-50
2023/04/04 10:19:37;;;;;;;1.63;1.43;;;;;;;;;;10363973;28;20034;-60
2023/04/04 10:24:37;;;;;;;2.78;1.60;;;;;;;;;;10366742;28;20037;-50
2023/04/04 10:29:38;;;;;;;2.17;1.30;;;;;;;;;;10372487;28;20033;-49
2023/04/04 10:35:01;;;;;;;1.45;1.35;;;;;;;;;;10371874;28;20102;-49
2023/04/04 10:40:14;;;;;;;2.03;1.30;;;;;;;;;;10384036;28;20022;-49
2023/04/04 10:45:16;;;;;;;1.63;1.50;;;;;;;;;;10370259;28;20033;-52
2023/04/04 10:50:19;;;;;;;4.80;1.70;;;;;;;;;;10369714;28;20113;-53
2023/04/04 10:55:20;;;;;;;2.42;1.70;;;;;;;;;;10369094;28;20046;-49
2023/04/04 11:00:22;;;;;;;2.92;1.40;;;;;;;;;;10380403;28;20026;-51
2023/04/04 11:05:31;;;;;;;2.90;1.63;;;;;;;;;;10370826;28;20211;-49
2023/04/04 11:10:43;;;;;;;2.63;1.48;;;;;;;;;;10368909;28;20080;-49
2023/04/04 11:16:09;;;;;;;2.67;1.58;;;;;;;;;;10369184;28;20242;-52
2023/04/04 11:21:28;;;;;;;1.52;1.30;;;;;;;;;;10368914;28;20041;-49
2023/04/04 11:26:29;;;;;;;3.03;1.52;;;;;;;;;;10369149;28;20032;-50
2023/04/04 11:31:44;;;;;;;2.90;1.27;;;;;;;;;;10367651;28;20032;-54
2023/04/04 11:36:44;;;;;;;2.05;1.55;;;;;;;;;;10361532;28;20026;-58
2023/04/04 11:41:56;;;;;;;1.83;1.60;;;;;;;;;;10367951;28;20033;-50
2023/04/04 11:47:05;;;;;;;1.27;1.17;;;;;;;;;;10367675;28;20025;-54
2023/04/04 11:52:17;;;;;;;4.60;1.45;;;;;;;;;;10367094;28;20077;-50
2023/04/04 11:57:19;;;;;;;2.45;1.42;;;;;;;;;;10381994;28;20402;-52
2023/04/04 12:02:30;;;;;;;1.30;1.20;;;;;;;;;;10357314;28;20500;-50
2023/04/04 12:07:30;;;;;;;1.73;1.60;;;;;;;;;;10368417;28;20033;-54
2023/04/04 12:12:35;;;;;;;1.60;1.20;;;;;;;;;;10358993;28;20092;-51
2023/04/04 12:17:43;;;;;;;1.48;1.25;;;;;;;;;;10365724;28;20030;-52
2023/04/04 12:22:49;;;;;;;2.70;1.40;;;;;;;;;;10365387;28;20121;-54
2023/04/04 12:27:51;;;;;;;2.47;1.40;;;;;;;;;;10356304;28;20555;-53
2023/04/04 12:32:51;;;;;;;3.10;1.40;;;;;;;;;;10380520;28;20103;-50
2023/04/04 12:38:11;;;;;;;1.70;1.50;;;;;;;;;;10358108;28;20034;-53
2023/04/04 12:43:16;;;;;;;2.55;1.45;;;;;;;;;;10349010;28;20033;-51
2023/04/04 12:48:17;;;;;;;3.50;1.60;;;;;;;;;;10372212;28;20049;-51
2023/04/04 12:53:26;;;;;;;1.45;1.35;;;;;;;;;;10368791;28;20046;-53
2023/04/04 12:58:27;;;;;;;3.33;1.40;;;;;;;;;;10372521;28;20057;-49
2023/04/04 13:03:29;;;;;;;2.22;1.50;;;;;;;;;;10402760;28;20120;-50
2023/04/04 13:08:29;;;;;;;1.58;1.30;;;;;;;;;;10390490;28;20127;-50
2023/04/04 13:13:38;;;;;;;3.38;1.20;;;;;;;;;;10384496;28;20033;-52
2023/04/04 13:18:42;;;;;;;2.45;1.30;;;;;;;;;;10388704;28;20090;-54
2023/04/04 13:23:43;;;;;;;4.53;1.45;;;;;;;;;;10369174;28;20026;-52
2023/04/04 13:28:43;;;;;;;1.60;1.30;;;;;;;;;;10370728;28;20482;-53
2023/04/04 13:33:44;;;;;;;2.72;1.58;;;;;;;;;;10373324;28;20041;-61
2023/04/04 13:38:45;;;;;;;2.65;1.48;;;;;;;;;;10371839;28;20037;-51
2023/04/04 13:43:45;;;;;;;1.80;1.42;;;;;;;;;;10371145;28;20044;-50
2023/04/04 13:48:46;;;;;;;4.57;1.55;;;;;;;;;;10369593;28;20022;-54
2023/04/04 13:53:47;;;;;;;2.42;1.27;;;;;;;;;;10370804;28;20041;-51
2023/04/04 13:58:49;;;;;;;4.43;1.80;;;;;;;;;;10384661;28;20025;-50
2023/04/04 14:03:50;;;;;;;2.25;1.67;;;;;;;;;;10382237;28;20117;-50
2023/04/04 14:08:51;;;;;;;2.22;1.42;;;;;;;;;;10379550;28;20022;-52
2023/04/04 14:13:51;;;;;;;3.67;1.98;;;;;;;;;;10376176;28;20025;-55
2023/04/04 14:18:52;;;;;;;2.03;1.30;;;;;;;;;;10379923;28;20087;-51
2023/04/04 14:23:53;;;;;;;2.97;1.48;;;;;;;;;;10369896;28;20549;-52
2023/04/04 14:28:53;;;;;;;1.75;1.63;;;;;;;;;;10371413;28;20088;-54
2023/04/04 14:33:54;;;;;;;4.05;1.65;;;;;;;;;;10371440;28;20030;-50
2023/04/04 14:38:54;;;;;;;1.65;1.40;;;;;;;;;;10370838;28;20142;-63
2023/04/04 14:43:55;;;;;;;2.13;1.40;;;;;;;;;;10368951;28;20037;-49
2023/04/04 14:48:56;;;;;;;1.40;1.30;;;;;;;;;;10370725;28;20018;-52
2023/04/04 14:53:56;;;;;;;1.40;1.30;;;;;;;;;;10415814;23;20667;-52
2023/04/04 14:58:58;;;;;;;1.35;1.25;;;;;;;;;;10416841;28;20472;-51
2023/04/04 15:03:59;;;;;;;1.65;1.20;;;;;;;;;;10420593;28;20026;-55
2023/04/04 15:08:59;;;;;;;2.83;1.63;;;;;;;;;;10413774;28;20026;-57
2023/04/04 15:14:00;;;;;;;2.47;1.77;;;;;;;;;;10412722;28;20029;-61
2023/04/04 15:19:01;;;;;;;2.67;1.40;;;;;;;;;;10412922;28;20025;-53
2023/04/04 15:24:02;;;;;;;2.28;1.52;;;;;;;;;;10417170;28;20038;-53
2023/04/04 15:29:03;;;;;;;2.17;1.42;;;;;;;;;;10413211;28;20037;-49
2023/04/04 15:34:04;;;;;;;2.53;1.42;;;;;;;;;;10400650;28;20032;-51
2023/04/04 15:39:05;;;;;;;3.47;1.67;;;;;;;;;;10410467;28;20215;-52
2023/04/04 15:44:05;;;;;;;3.83;1.73;;;;;;;;;;10410238;28;20025;-61
2023/04/04 15:49:06;;;;;;;3.60;1.80;;;;;;;;;;10409974;28;20030;-53
2023/04/04 15:54:06;;;;;;;6.30;1.70;;;;;;;;;;10409612;28;20056;-53
2023/04/04 15:59:07;;;;;;;2.60;1.60;;;;;;;;;;10409362;28;20048;-58
2023/04/04 16:04:09;;;;;;;4.28;1.70;;;;;;;;;;10410005;28;20033;-52
2023/04/04 16:09:09;;;;;;;2.65;2.05;;;;;;;;;;10409417;28;20036;-60
2023/04/04 16:14:11;;;;;;;1.73;1.63;;;;;;;;;;10409175;28;20028;-52
2023/04/04 16:19:15;;;;;;;2.35;1.75;;;;;;;;;;10408474;28;20028;-52
2023/04/04 16:30:31;;;;;;;1.88;1.45;;;;;;;;;;10401355;28;20029;-51
2023/04/04 16:35:32;;;;;;;1.77;1.63;;;;;;;;;;10409500;28;20021;-50
2023/04/04 16:40:33;;;;;;;3.92;1.80;;;;;;;;;;10409085;28;20457;-50
2023/04/04 16:45:34;;;;;;;2.58;1.50;;;;;;;;;;10408423;28;20033;-53
2023/04/04 16:50:34;;;;;;;2.50;1.65;;;;;;;;;;10409872;28;20384;-53
2023/04/04 16:55:35;;;;;;;3.97;1.70;;;;;;;;;;10409132;28;20025;-52
2023/04/04 17:00:36;;;;;;;5.55;1.88;;;;;;;;;;10419679;28;20021;-52
2023/04/04 17:05:36;;;;;;;4.22;2.10;;;;;;;;;;10409950;28;20451;-55
2023/04/04 17:10:39;;;;;;;3.90;1.77;;;;;;;;;;10396279;28;20033;-54
2023/04/04 17:15:39;;;;;;;4.68;1.77;;;;;;;;;;10383644;28;20397;-60
2023/04/04 17:20:42;;;;;;;2.08;1.60;;;;;;;;;;10379234;28;20041;-52
2023/04/04 17:25:42;;;;;;;3.30;1.85;;;;;;;;;;10401818;28;20440;-53
2023/04/04 17:30:43;;;;;;;4.75;1.98;;;;;;;;;;10402199;28;20037;-51
2023/04/04 17:35:46;;;;;;;2.47;1.50;;;;;;;;;;10404365;28;20037;-57
2023/04/04 17:40:48;;;;;;;3.15;1.85;;;;;;;;;;10405842;28;20578;-58
2023/04/04 17:45:48;;;;;;;5.10;1.70;;;;;;;;;;10405158;28;20544;-57
2023/04/04 17:50:50;;;;;;;1.58;1.48;;;;;;;;;;10404390;28;20056;-55
2023/04/04 17:55:51;;;;;;;3.53;1.42;;;;;;;;;;10397411;28;20112;-55
2023/04/04 18:00:54;;;;;;;3.60;1.70;;;;;;;;;;10405173;28;20112;-60
2023/04/04 18:05:55;;;;;;;6.30;2.10;;;;;;;;;;10405805;28;20038;-55
2023/04/04 18:10:57;;;;;;;2.20;1.65;;;;;;;;;;10405726;28;20032;-55
2023/04/04 18:15:58;;;;;;;5.00;1.83;;;;;;;;;;10404839;28;20389;-55
2023/04/04 18:21:00;;;;;;;4.28;1.67;;;;;;;;;;10405727;28;20022;-55
2023/04/04 18:26:01;;;;;;;4.85;1.80;;;;;;;;;;10412721;28;20025;-57
2023/04/04 18:31:01;;;;;;;8.45;1.88;;;;;;;;;;10407453;28;20394;-54
2023/04/04 18:36:02;;;;;;;7.25;2.20;;;;;;;;;;10406737;28;20041;-54
2023/04/04 18:41:04;;;;;;;3.35;1.70;;;;;;;;;;10406224;28;20065;-55
2023/04/04 18:46:05;;;;;;;3.60;1.70;;;;;;;;;;10413503;28;20047;-55
2023/04/04 18:51:06;;;;;;;4.35;1.80;;;;;;;;;;10413913;28;20371;-59
2023/04/04 18:56:07;;;;;;;3.88;1.70;;;;;;;;;;10411572;28;20045;-58
2023/04/04 19:01:08;;;;;;;3.20;1.88;;;;;;;;;;10407659;28;20037;-54
2023/04/04 19:06:12;;;;;;;16.35;2.10;;;;;;;;;;10407877;28;20041;-51
2023/04/04 19:11:14;;;;;;;15.60;2.13;;;;;;;;;;10412140;28;20378;-56
2023/04/04 19:16:16;;;;;;;6.15;1.83;;;;;;;;;;10411430;28;20036;-54
2023/04/04 19:21:16;;;;;;;9.10;2.47;;;;;;;;;;10401549;28;20486;-52
2023/04/04 19:26:17;;;;;;;17.58;1.88;;;;;;;;;;10413269;28;20033;-57
2023/04/04 19:31:28;;;;;;;9.85;1.98;;;;;;;;;;10411300;28;20087;-54
2023/04/04 19:36:34;;;;;;;15.75;2.40;;;;;;;;;;10397414;28;20397;-54
2023/04/04 19:41:37;;;;;;;11.25;2.30;;;;;;;;;;10410253;28;20424;-52
2023/04/04 19:46:38;;;;;;;15.77;1.95;;;;;;;;;;10403716;28;20497;-53
2023/04/04 19:51:56;;;;;;;8.82;2.35;;;;;;;;;;10408896;28;20042;-54
2023/04/04 19:57:02;;;;;;;9.35;2.10;;;;;;;;;;10401436;28;20026;-50
2023/04/04 20:02:05;;;;;;;4.78;2.10;;;;;;;;;;10406654;28;20393;-54
2023/04/04 20:07:06;;;;;;;8.10;2.40;;;;;;;;;;10418241;28;20477;-54
2023/04/04 20:12:09;;;;;;;7.78;2.53;;;;;;;;;;10401353;28;20025;-53
2023/04/04 20:17:09;;;;;;;3.75;1.85;;;;;;;;;;10402260;28;20416;-54
2023/04/04 20:22:10;;;;;;;2.78;1.67;;;;;;;;;;10410357;28;20033;-52
2023/04/04 20:27:22;;;;;;;8.85;2.17;;;;;;;;;;10410489;28;20461;-53
2023/04/04 20:32:22;;;;;;;5.20;1.88;;;;;;;;;;10398664;28;20104;-50
2023/04/04 20:37:25;;;;;;;4.40;1.77;;;;;;;;;;10406193;28;20500;-55
2023/04/04 20:42:29;;;;;;;5.00;2.15;;;;;;;;;;10403099;28;20495;-59
2023/04/04 20:47:52;;;;;;;3.78;2.17;;;;;;;;;;10407373;28;20038;-53
2023/04/04 20:52:58;;;;;;;3.92;1.95;;;;;;;;;;10406585;28;20099;-53
2023/04/04 20:58:07;;;;;;;5.10;2.10;;;;;;;;;;10407323;28;20076;-53
2023/04/04 21:03:25;;;;;;;5.53;2.10;;;;;;;;;;10416625;28;20036;-53
2023/04/04 21:08:28;;;;;;;5.77;2.27;;;;;;;;;;10407792;28;20174;-49
2023/04/04 21:13:37;;;;;;;6.78;2.00;;;;;;;;;;10406053;28;20049;-58
2023/04/04 21:18:38;;;;;;;;;;;;;;;;;;10407085;28;20079;-49
2023/04/04 21:23:48;;;;;;;6.10;2.17;;;;;;;;;;10408355;28;19917;-53
2023/04/04 21:28:49;;;;;;;6.07;2.00;;;;;;;;;;10408812;28;20091;-52
2023/04/04 21:33:52;;;;;;;5.43;1.90;;;;;;;;;;10409450;28;20497;-52
2023/04/04 21:38:55;;;;;;;3.08;1.90;;;;;;;;;;10408990;28;20033;-53
2023/04/04 21:43:58;;;;;;;3.55;2.22;;;;;;;;;;10405479;28;20036;-52
2023/04/04 21:48:59;;;;;;;2.47;1.95;;;;;;;;;;10414578;28;20045;-49
2023/04/04 21:54:01;;;;;;;4.47;2.10;;;;;;;;;;10407323;28;20108;-50
2023/04/04 21:59:06;;;;;;;3.92;2.13;;;;;;;;;;10411856;28;20032;-52
2023/04/04 22:04:07;;;;;;;3.92;2.00;;;;;;;;;;10413046;28;20037;-53
2023/04/04 22:09:21;;;;;;;8.43;2.10;;;;;;;;;;10406825;28;20060;-53
2023/04/04 22:14:22;;;;;;;4.45;2.08;;;;;;;;;;10387734;28;20497;-50
2023/04/04 22:19:22;;;;;;;19.92;3.03;;;;;;;;;;10405579;28;20025;-52
2023/04/04 22:24:23;;;;;;;18.08;4.18;;;;;;;;;;10412302;28;20118;-58
2023/04/04 22:29:23;;;;;;;14.20;3.15;;;;;;;;;;10413010;28;20037;-54
2023/04/04 22:34:24;;;;;;;9.57;2.72;;;;;;;;;;10407757;28;20040;-56
2023/04/04 22:39:26;;;;;;;11.85;3.05;;;;;;;;;;10400418;28;20037;-52
2023/04/04 22:44:26;;;;;;;11.77;2.80;;;;;;;;;;10406718;28;20148;-52
2023/04/04 22:49:27;;;;;;;13.15;2.95;;;;;;;;;;10410114;28;20029;-54
2023/04/04 22:54:28;;;;;;;13.88;3.67;;;;;;;;;;10411860;28;20068;-55
2023/04/04 22:59:29;;;;;;;10.88;3.28;;;;;;;;;;10409067;28;20032;-52
2023/04/04 23:04:31;;;;;;;11.30;2.80;;;;;;;;;;10405204;28;20393;-53
2023/04/04 23:09:31;;;;;;;9.85;3.00;;;;;;;;;;10417220;28;20036;-52
2023/04/04 23:14:37;;;;;;;9.57;2.88;;;;;;;;;;10411488;28;20032;-52
2023/04/04 23:19:38;;;;;;;15.15;3.20;;;;;;;;;;10411069;28;20062;-53
2023/04/04 23:24:39;;;;;;;9.80;2.83;;;;;;;;;;10410012;28;20029;-53
2023/04/04 23:29:41;;;;;;;16.17;3.25;;;;;;;;;;10409811;28;20056;-50
2023/04/04 23:34:41;;;;;;;7.97;2.83;;;;;;;;;;10412345;28;20018;-51
2023/04/04 23:39:42;;;;;;;6.47;2.75;;;;;;;;;;10411664;28;20025;-49
2023/04/04 23:44:43;;;;;;;10.07;2.60;;;;;;;;;;10412156;28;20021;-57
2023/04/04 23:49:43;;;;;;;6.63;3.00;;;;;;;;;;10410502;28;20075;-52
2023/04/04 23:54:44;;;;;;;8.07;2.95;;;;;;;;;;10409714;28;20033;-54
2023/04/04 23:59:44;;;;;;;5.30;2.85;;;;;;;;;;10418134;28;20029;-53
